Overview Statistics Trail Chart Weather Telemetry Raw packets
 

This is the latest recevied weather packets stored in our database for station/object HA5KNF-10. If no packets are shown the sender has not sent any weather packets the latest 10 day(s).

<< 1 2 3 4 5 6 >>
Time Temp. Humidity Pressure Rain* Wind** Luminosity Snow
1788466254 18.89° C 50% 1004.2 hPa - - - -
1788462714 20° C 47% 1004.3 hPa - - - -
1788459174 21.11° C 47% 1004.1 hPa - - - -
1788455670 22.78° C 35% 1003.7 hPa - - - -
1788452130 26.11° C 30% 1003.7 hPa - - - -
1788448590 28.33° C 27% 1003.8 hPa - - - -
1788445050 28.33° C 26% 1003.9 hPa - - - -
1788442308 27.78° C 27% 1004.2 hPa - - - -
1788438767 28.33° C 27% 1004.3 hPa - - - -
1788437553 28.89° C 28% 1004.4 hPa - - - -
1788434014 27.22° C 31% 1004.9 hPa - - - -
1788430550 23.89° C 36% 1005.5 hPa - - - -
1788427010 22.78° C 39% 1005.8 hPa - - - -
1788423495 21.67° C 43% 1005.8 hPa - - - -
1788419929 21.11° C 43% 1005.8 hPa - - - -
1788416389 21.11° C 43% 1005.8 hPa - - - -
1788412849 21.11° C 43% 1005.7 hPa - - - -
1788409309 21.11° C 42% 1005.1 hPa - - - -
1788405768 21.11° C 42% 1004.9 hPa - - - -
1788402228 21.67° C 41% 1005.2 hPa - - - -
1788398688 21.67° C 40% 1005.4 hPa - - - -
1788395148 22.22° C 40% 1005.4 hPa - - - -
1788391607 22.78° C 40% 1005.3 hPa - - - -
1788388067 23.33° C 39% 1005.5 hPa - - - -
1788384563 23.33° C 38% 1005.6 hPa - - - -

* Rain since midnight (hover to see other rain measurements)
** Current wind speed in m/s (hover to see current wind gust speed)